createdAt,value
2023-02-07T00:00:07.363Z,39.10
2023-02-07T00:00:17.464Z,39.80
2023-02-07T00:00:27.621Z,39.30
2023-02-07T00:00:37.573Z,40.50
2023-02-07T00:00:47.675Z,38.10
2023-02-07T00:00:57.752Z,37.40
2023-02-07T00:01:07.750Z,38.70
2023-02-07T00:01:17.843Z,42.10
2023-02-07T00:01:27.942Z,43.10
2023-02-07T00:01:38.104Z,44.40
2023-02-07T00:01:48.118Z,41.40
2023-02-07T00:01:58.223Z,41.00
2023-02-07T00:02:08.206Z,37.90
2023-02-07T00:02:18.378Z,36.50
2023-02-07T00:02:28.323Z,36.40
2023-02-07T00:02:38.403Z,37.60
2023-02-07T00:02:48.563Z,41.10
2023-02-07T00:02:58.671Z,40.10
2023-02-07T00:03:08.783Z,38.80
2023-02-07T00:03:18.813Z,39.10
2023-02-07T00:03:29.039Z,40.20
2023-02-07T00:03:38.982Z,41.90
2023-02-07T00:03:49.122Z,41.00
2023-02-07T00:03:59.220Z,42.00
2023-02-07T00:04:09.324Z,41.70
2023-02-07T00:04:19.414Z,41.30
2023-02-07T00:04:29.531Z,40.90
2023-02-07T00:04:39.632Z,41.80
2023-02-07T00:04:49.671Z,38.50
2023-02-07T00:04:59.744Z,36.10
2023-02-07T00:05:09.858Z,35.20
2023-02-07T00:05:19.929Z,38.80
2023-02-07T00:05:30.022Z,39.70
2023-02-07T00:05:40.106Z,39.90
2023-02-07T00:05:50.203Z,38.70
2023-02-07T00:06:00.310Z,38.20
2023-02-07T00:06:10.386Z,37.90
2023-02-07T00:06:20.493Z,38.50
2023-02-07T00:06:30.562Z,39.40
2023-02-07T00:06:40.681Z,38.10
2023-02-07T00:06:50.745Z,37.40
2023-02-07T00:07:00.903Z,36.50
2023-02-07T00:07:10.978Z,37.70
2023-02-07T00:07:21.096Z,38.50
2023-02-07T00:07:31.215Z,40.30
2023-02-07T00:07:41.290Z,42.70
2023-02-07T00:07:51.378Z,42.80
2023-02-07T00:08:01.459Z,41.20
2023-02-07T00:08:11.530Z,39.50
2023-02-07T00:08:21.620Z,38.40
2023-02-07T00:08:31.707Z,40.90
2023-02-07T00:08:41.833Z,43.20
2023-02-07T00:08:51.935Z,44.80
2023-02-07T00:09:02.030Z,43.90
2023-02-07T00:09:12.109Z,41.10
2023-02-07T00:09:22.226Z,39.30
2023-02-07T00:09:32.299Z,37.60
2023-02-07T00:09:42.402Z,39.30
2023-02-07T00:09:52.479Z,39.50
2023-02-07T00:10:02.576Z,38.70
2023-02-07T00:10:12.631Z,38.20
2023-02-07T00:10:22.730Z,38.60
2023-02-07T00:10:32.808Z,38.10
2023-02-07T00:10:42.802Z,39.90
2023-02-07T00:10:52.892Z,38.50
2023-02-07T00:11:02.989Z,40.40
2023-02-07T00:11:13.162Z,39.00
2023-02-07T00:11:23.285Z,40.40
2023-02-07T00:11:33.312Z,41.20
2023-02-07T00:11:43.403Z,40.90
2023-02-07T00:11:53.535Z,42.20
2023-02-07T00:12:03.631Z,41.10
2023-02-07T00:12:13.649Z,42.10
2023-02-07T00:12:23.807Z,40.10
2023-02-07T00:12:33.898Z,38.40
2023-02-07T00:12:43.978Z,36.30
2023-02-07T00:12:54.142Z,37.50
2023-02-07T00:13:06.269Z,39.90
2023-02-07T00:13:14.258Z,38.90
2023-02-07T00:13:24.364Z,39.30
2023-02-07T00:13:34.464Z,39.60
2023-02-07T00:13:44.605Z,40.20
2023-02-07T00:13:54.588Z,40.70
2023-02-07T00:14:04.727Z,39.80
2023-02-07T00:14:14.808Z,41.30
2023-02-07T00:14:24.787Z,38.70
2023-02-07T00:14:34.882Z,37.40
2023-02-07T00:14:44.977Z,39.10
2023-02-07T00:14:55.058Z,40.00
2023-02-07T00:15:05.177Z,41.50
2023-02-07T00:15:15.291Z,40.20
2023-02-07T00:15:25.399Z,41.20
2023-02-07T00:15:35.797Z,40.90
2023-02-07T00:15:45.467Z,42.10
2023-02-07T00:15:55.556Z,40.90
2023-02-07T00:16:05.876Z,39.70
2023-02-07T00:16:15.708Z,39.10
2023-02-07T00:16:25.837Z,38.50
2023-02-07T00:16:35.936Z,40.20
2023-02-07T00:16:46.076Z,39.00
2023-02-07T00:16:56.189Z,39.00
2023-02-07T00:17:06.268Z,38.50
2023-02-07T00:17:16.386Z,38.00
2023-02-07T00:17:26.488Z,40.70
2023-02-07T00:17:36.568Z,38.60
2023-02-07T00:17:46.681Z,40.30
2023-02-07T00:17:56.756Z,40.50
2023-02-07T00:18:06.898Z,44.40
2023-02-07T00:18:17.041Z,43.20
2023-02-07T00:18:27.153Z,42.50
2023-02-07T00:18:37.235Z,41.60
2023-02-07T00:18:47.345Z,40.70
2023-02-07T00:19:00.026Z,38.40
2023-02-07T00:19:07.436Z,37.90
2023-02-07T00:19:17.504Z,38.10
2023-02-07T00:19:27.590Z,40.90
2023-02-07T00:19:37.765Z,42.10
2023-02-07T00:19:47.912Z,44.60
2023-02-07T00:19:58.002Z,42.20
2023-02-07T00:20:08.095Z,41.50
2023-02-07T00:20:18.177Z,37.90
2023-02-07T00:20:28.334Z,37.20
2023-02-07T00:20:38.337Z,38.00
2023-02-07T00:20:48.459Z,38.70
2023-02-07T00:20:58.449Z,39.80
2023-02-07T00:21:08.550Z,40.90
2023-02-07T00:21:18.615Z,40.90
2023-02-07T00:21:28.706Z,40.80
2023-02-07T00:21:38.792Z,40.00
2023-02-07T00:21:48.863Z,42.20
2023-02-07T00:21:58.965Z,43.40
2023-02-07T00:22:09.059Z,43.60
2023-02-07T00:22:19.187Z,43.00
2023-02-07T00:22:29.296Z,42.70
2023-02-07T00:22:39.456Z,39.60
2023-02-07T00:22:49.525Z,39.70
2023-02-07T00:22:59.623Z,39.20
2023-02-07T00:23:09.723Z,41.00
2023-02-07T00:23:19.848Z,38.40
2023-02-07T00:23:29.915Z,39.00
2023-02-07T00:23:40.026Z,38.50
2023-02-07T00:23:50.118Z,39.50
2023-02-07T00:24:00.225Z,38.60
2023-02-07T00:24:10.314Z,41.10
2023-02-07T00:24:20.410Z,41.30
2023-02-07T00:24:30.501Z,43.50
2023-02-07T00:24:40.569Z,41.60
2023-02-07T00:24:50.675Z,42.30
2023-02-07T00:25:00.665Z,41.20
2023-02-07T00:25:10.777Z,40.60
2023-02-07T00:25:20.859Z,39.30
2023-02-07T00:25:30.925Z,39.60
2023-02-07T00:25:41.003Z,40.40
2023-02-07T00:25:51.094Z,42.20
2023-02-07T00:26:01.155Z,41.70
2023-02-07T00:26:11.297Z,41.80
2023-02-07T00:26:21.356Z,38.80
2023-02-07T00:26:31.505Z,39.50
2023-02-07T00:26:41.574Z,39.60
2023-02-07T00:26:51.694Z,42.10
2023-02-07T00:27:01.692Z,40.00
2023-02-07T00:27:11.802Z,40.30
2023-02-07T00:27:21.924Z,40.60
2023-02-07T00:27:32.059Z,43.50
2023-02-07T00:27:42.159Z,43.80
2023-02-07T00:27:52.368Z,42.60
2023-02-07T00:28:02.386Z,40.20
2023-02-07T00:28:12.382Z,42.00
2023-02-07T00:28:22.447Z,44.50
2023-02-07T00:28:32.591Z,45.60
2023-02-07T00:28:42.531Z,43.50
2023-02-07T00:28:52.512Z,42.00
2023-02-07T00:29:02.596Z,41.30
2023-02-07T00:29:12.685Z,42.80
2023-02-07T00:29:22.802Z,45.20
2023-02-07T00:29:32.893Z,46.50
2023-02-07T00:29:42.975Z,47.30
2023-02-07T00:29:52.975Z,44.80
2023-02-07T00:30:03.082Z,44.20
2023-02-07T00:30:13.226Z,44.30
2023-02-07T00:30:23.373Z,42.80
2023-02-07T00:30:33.512Z,43.20
2023-02-07T00:30:43.513Z,44.30
2023-02-07T00:30:53.617Z,45.00
2023-02-07T00:31:03.638Z,44.30
2023-02-07T00:31:13.740Z,43.10
2023-02-07T00:31:23.762Z,42.30
2023-02-07T00:31:34.003Z,43.80
2023-02-07T00:31:43.841Z,42.50
2023-02-07T00:31:53.807Z,43.80
2023-02-07T00:32:03.954Z,42.20
2023-02-07T00:32:14.081Z,42.50
2023-02-07T00:32:24.147Z,42.20
2023-02-07T00:32:34.281Z,42.50
2023-02-07T00:32:44.395Z,45.20
2023-02-07T00:32:54.476Z,47.40
2023-02-07T00:33:04.616Z,46.70
2023-02-07T00:33:14.731Z,43.90
2023-02-07T00:33:24.825Z,43.60
2023-02-07T00:33:34.947Z,46.20
2023-02-07T00:33:44.927Z,46.10
2023-02-07T00:33:54.931Z,45.80
2023-02-07T00:34:05.035Z,43.10
2023-02-07T00:34:15.115Z,44.70
2023-02-07T00:34:25.216Z,44.30
2023-02-07T00:34:35.269Z,45.50
2023-02-07T00:34:45.344Z,45.50
2023-02-07T00:34:55.438Z,45.20
2023-02-07T00:35:05.503Z,43.10
2023-02-07T00:35:15.629Z,41.50
2023-02-07T00:35:25.729Z,41.30
2023-02-07T00:35:36.118Z,42.40
2023-02-07T00:35:45.845Z,43.40
2023-02-07T00:35:55.953Z,43.10
2023-02-07T00:36:06.036Z,44.20
2023-02-07T00:36:16.123Z,44.40
2023-02-07T00:36:26.227Z,44.80
2023-02-07T00:36:36.337Z,41.20
2023-02-07T00:36:46.447Z,39.80
2023-02-07T00:36:56.524Z,44.30
2023-02-07T00:37:06.679Z,47.10
2023-02-07T00:37:16.778Z,50.40
2023-02-07T00:37:26.833Z,46.40
2023-02-07T00:37:36.989Z,45.80
2023-02-07T00:37:47.065Z,44.60
2023-02-07T00:37:57.189Z,44.90
2023-02-07T00:38:07.274Z,45.40
2023-02-07T00:38:17.213Z,44.20
2023-02-07T00:38:27.273Z,43.40
2023-02-07T00:38:37.415Z,43.00
2023-02-07T00:38:47.397Z,42.00
2023-02-07T00:38:57.517Z,41.70
2023-02-07T00:39:07.611Z,43.10
2023-02-07T00:39:17.736Z,43.10
2023-02-07T00:39:27.833Z,45.10
2023-02-07T00:39:37.917Z,43.10
2023-02-07T00:39:48.017Z,44.10
2023-02-07T00:39:58.143Z,43.50
2023-02-07T00:40:08.255Z,43.70
2023-02-07T00:40:18.343Z,43.00
2023-02-07T00:40:28.394Z,41.80
2023-02-07T00:40:38.555Z,43.00
2023-02-07T00:40:48.651Z,44.70
2023-02-07T00:40:58.790Z,45.20
2023-02-07T00:41:08.745Z,45.10
2023-02-07T00:41:18.919Z,42.60
2023-02-07T00:41:29.010Z,41.70
2023-02-07T00:41:39.111Z,40.90
2023-02-07T00:41:49.222Z,41.50
2023-02-07T00:41:59.296Z,41.10
2023-02-07T00:42:09.394Z,41.80
2023-02-07T00:42:19.473Z,43.70
2023-02-07T00:42:29.577Z,46.00
2023-02-07T00:42:39.668Z,44.40
2023-02-07T00:42:49.765Z,42.80
2023-02-07T00:42:59.833Z,42.40
2023-02-07T00:43:12.870Z,41.90
2023-02-07T00:43:29.423Z,42.20
2023-02-07T00:43:31.862Z,39.60
2023-02-07T00:43:42.026Z,39.20
2023-02-07T00:43:52.090Z,39.50
2023-02-07T00:44:02.205Z,39.10
2023-02-07T00:44:12.272Z,40.10
2023-02-07T00:44:22.370Z,40.30
2023-02-07T00:44:32.434Z,40.50
2023-02-07T00:44:42.553Z,40.00
2023-02-07T00:44:52.640Z,41.30
2023-02-07T00:45:02.750Z,44.80
2023-02-07T00:45:12.805Z,45.80
2023-02-07T00:45:22.915Z,44.20
2023-02-07T00:45:32.999Z,42.80
2023-02-07T00:45:43.125Z,42.90
2023-02-07T00:45:53.236Z,43.10
2023-02-07T00:46:03.331Z,43.00
2023-02-07T00:46:13.452Z,44.30
2023-02-07T00:46:23.458Z,44.40
2023-02-07T00:46:33.564Z,43.20
2023-02-07T00:46:43.661Z,41.50
2023-02-07T00:46:53.753Z,39.70
2023-02-07T00:47:03.819Z,39.30
2023-02-07T00:47:13.949Z,39.00
2023-02-07T00:47:24.022Z,38.50
2023-02-07T00:47:34.153Z,37.30
2023-02-07T00:47:44.346Z,37.70
2023-02-07T00:47:54.453Z,36.40
2023-02-07T00:48:04.556Z,38.50
2023-02-07T00:48:14.693Z,39.40
2023-02-07T00:48:24.790Z,41.50
2023-02-07T00:48:34.866Z,40.30
2023-02-07T00:48:44.983Z,40.00
2023-02-07T00:48:55.078Z,40.10
2023-02-07T00:49:05.240Z,39.20
2023-02-07T00:49:15.303Z,39.70
2023-02-07T00:49:25.403Z,39.90
2023-02-07T00:49:35.501Z,40.30
2023-02-07T00:49:45.634Z,40.30
2023-02-07T00:49:55.724Z,41.10
2023-02-07T00:50:05.813Z,42.60
2023-02-07T00:50:15.905Z,43.30
2023-02-07T00:50:25.963Z,43.70
2023-02-07T00:50:36.066Z,40.70
2023-02-07T00:50:46.164Z,40.60
2023-02-07T00:50:56.267Z,40.30
2023-02-07T00:51:06.369Z,42.10
2023-02-07T00:51:16.480Z,43.70
2023-02-07T00:51:26.577Z,43.90
2023-02-07T00:51:36.652Z,42.10
2023-02-07T00:51:46.739Z,39.10
2023-02-07T00:51:56.831Z,39.00
2023-02-07T00:52:06.934Z,37.90
2023-02-07T00:52:17.043Z,40.00
2023-02-07T00:52:27.171Z,38.60
2023-02-07T00:52:37.249Z,39.90
2023-02-07T00:52:47.366Z,38.70
2023-02-07T00:52:57.464Z,38.90
2023-02-07T00:53:07.563Z,38.60
2023-02-07T00:53:17.654Z,41.70
2023-02-07T00:53:27.770Z,42.20
2023-02-07T00:53:37.883Z,39.90
2023-02-07T00:53:47.935Z,38.20
2023-02-07T00:53:58.070Z,38.70
2023-02-07T00:54:08.201Z,41.20
2023-02-07T00:54:18.287Z,39.20
2023-02-07T00:54:28.370Z,36.50
2023-02-07T00:54:38.507Z,36.70
2023-02-07T00:54:48.580Z,39.10
2023-02-07T00:54:58.672Z,41.40
2023-02-07T00:55:08.760Z,43.40
2023-02-07T00:55:18.861Z,43.10
2023-02-07T00:55:28.932Z,42.80
2023-02-07T00:55:39.409Z,41.90
2023-02-07T00:55:49.101Z,39.50
2023-02-07T00:55:59.198Z,39.60
2023-02-07T00:56:09.380Z,37.40
2023-02-07T00:56:19.456Z,38.50
2023-02-07T00:56:29.558Z,38.60
2023-02-07T00:56:39.531Z,38.90
2023-02-07T00:56:49.649Z,37.70
2023-02-07T00:56:59.723Z,39.70
2023-02-07T00:57:09.881Z,39.00
2023-02-07T00:57:19.960Z,39.60
2023-02-07T00:57:30.071Z,38.00
2023-02-07T00:57:40.152Z,41.30
2023-02-07T00:57:50.265Z,43.50
2023-02-07T00:58:00.341Z,42.30
2023-02-07T00:58:10.450Z,40.80
2023-02-07T00:58:20.544Z,40.30
2023-02-07T00:58:30.653Z,41.20
2023-02-07T00:58:40.722Z,44.30
2023-02-07T00:58:51.111Z,43.20
2023-02-07T00:59:00.884Z,44.40
2023-02-07T00:59:10.880Z,41.20
2023-02-07T00:59:20.974Z,44.60
2023-02-07T00:59:31.080Z,44.70
2023-02-07T00:59:41.178Z,45.20
2023-02-07T00:59:51.259Z,42.00
2023-02-07T01:00:01.362Z,40.70
2023-02-07T01:00:11.426Z,40.30
2023-02-07T01:00:21.544Z,39.60
2023-02-07T01:00:31.611Z,42.90
2023-02-07T01:00:41.707Z,44.00
2023-02-07T01:00:51.779Z,43.80
2023-02-07T01:01:01.931Z,43.00
2023-02-07T01:01:12.043Z,44.40
2023-02-07T01:01:22.170Z,43.90
2023-02-07T01:01:32.289Z,43.20
2023-02-07T01:01:42.241Z,42.70
2023-02-07T01:01:52.318Z,43.70
2023-02-07T01:02:02.333Z,42.90
2023-02-07T01:02:12.420Z,42.50
2023-02-07T01:02:22.547Z,41.90
2023-02-07T01:02:32.621Z,40.60
2023-02-07T01:02:42.720Z,39.20
2023-02-07T01:02:52.889Z,40.90
2023-02-07T01:03:02.964Z,43.00
2023-02-07T01:03:13.074Z,42.80
2023-02-07T01:03:23.150Z,42.70
2023-02-07T01:03:33.294Z,41.20
2023-02-07T01:03:43.380Z,40.10
2023-02-07T01:03:53.520Z,40.50
2023-02-07T01:04:03.652Z,39.20
2023-02-07T01:04:13.921Z,41.30
2023-02-07T01:04:23.886Z,41.40
2023-02-07T01:04:34.039Z,43.20
2023-02-07T01:04:44.046Z,40.90
2023-02-07T01:04:54.223Z,39.00
2023-02-07T01:05:04.361Z,38.50
2023-02-07T01:05:14.445Z,39.80
2023-02-07T01:05:24.552Z,40.70
2023-02-07T01:05:34.750Z,41.50
2023-02-07T01:05:44.808Z,41.20
2023-02-07T01:05:54.960Z,42.10
2023-02-07T01:06:05.150Z,41.40
2023-02-07T01:06:15.240Z,43.40
2023-02-07T01:06:25.308Z,49.40
2023-02-07T01:06:35.376Z,50.10
2023-02-07T01:06:45.502Z,48.30
2023-02-07T01:06:55.597Z,41.20
2023-02-07T01:07:05.659Z,41.70
2023-02-07T01:07:15.757Z,44.00
2023-02-07T01:07:25.829Z,46.10
2023-02-07T01:07:35.906Z,44.90
2023-02-07T01:07:46.033Z,44.50
2023-02-07T01:07:56.102Z,41.50
2023-02-07T01:08:06.121Z,42.50
2023-02-07T01:08:16.233Z,40.30
2023-02-07T01:08:26.368Z,42.10
2023-02-07T01:08:36.494Z,45.30
2023-02-07T01:08:46.616Z,46.90
2023-02-07T01:08:56.593Z,45.40
2023-02-07T01:09:06.722Z,43.40
2023-02-07T01:09:16.782Z,40.70
2023-02-07T01:09:26.852Z,40.90
2023-02-07T01:09:37.064Z,39.50
2023-02-07T01:09:46.949Z,40.20
2023-02-07T01:09:57.046Z,40.80
2023-02-07T01:10:07.110Z,40.60
2023-02-07T01:10:17.194Z,41.80
2023-02-07T01:10:27.205Z,42.00
2023-02-07T01:10:37.307Z,41.90
2023-02-07T01:10:47.366Z,41.20
2023-02-07T01:10:57.506Z,40.90
2023-02-07T01:11:07.560Z,41.90
2023-02-07T01:11:17.651Z,43.40
2023-02-07T01:11:27.771Z,44.00
2023-02-07T01:11:37.850Z,44.20
2023-02-07T01:11:47.920Z,42.60
2023-02-07T01:11:58.040Z,39.50
2023-02-07T01:12:08.110Z,39.10
2023-02-07T01:12:18.211Z,39.60
2023-02-07T01:12:28.341Z,42.10
2023-02-07T01:12:38.436Z,42.40
2023-02-07T01:12:48.510Z,42.80
2023-02-07T01:12:58.501Z,42.50
2023-02-07T01:13:08.591Z,44.50
2023-02-07T01:13:18.672Z,44.10
2023-02-07T01:13:28.763Z,43.30
2023-02-07T01:13:38.840Z,40.90
2023-02-07T01:13:48.928Z,40.20
2023-02-07T01:13:59.008Z,41.60
2023-02-07T01:14:09.121Z,43.70
2023-02-07T01:14:19.211Z,42.20
2023-02-07T01:14:29.326Z,43.00
2023-02-07T01:14:39.402Z,43.00
2023-02-07T01:14:49.489Z,44.20
2023-02-07T01:14:59.622Z,41.40
2023-02-07T01:15:09.710Z,39.70
2023-02-07T01:15:19.844Z,42.40
2023-02-07T01:15:30.030Z,43.50
2023-02-07T01:15:40.293Z,43.70
2023-02-07T01:15:50.100Z,41.70
2023-02-07T01:16:00.091Z,40.80
2023-02-07T01:16:10.249Z,40.90
2023-02-07T01:16:20.322Z,40.60
2023-02-07T01:16:30.415Z,40.70
2023-02-07T01:16:40.534Z,41.50
2023-02-07T01:16:50.542Z,43.20
2023-02-07T01:17:00.656Z,43.90
2023-02-07T01:17:10.652Z,44.10
2023-02-07T01:17:20.785Z,44.60
2023-02-07T01:17:30.870Z,45.60
2023-02-07T01:17:40.979Z,45.10
2023-02-07T01:17:51.091Z,42.60
2023-02-07T01:18:01.181Z,39.60
2023-02-07T01:18:11.292Z,42.50
2023-02-07T01:18:21.360Z,43.30
2023-02-07T01:18:31.430Z,42.90
2023-02-07T01:18:41.512Z,39.70
2023-02-07T01:18:51.619Z,38.90
2023-02-07T01:19:01.694Z,40.00
2023-02-07T01:19:11.790Z,42.90
2023-02-07T01:19:21.864Z,44.50
2023-02-07T01:19:31.959Z,43.60
2023-02-07T01:19:42.052Z,40.00
2023-02-07T01:19:52.171Z,38.10
2023-02-07T01:20:02.278Z,39.30
2023-02-07T01:20:12.349Z,39.50
2023-02-07T01:20:22.443Z,41.50
2023-02-07T01:20:32.551Z,40.30
2023-02-07T01:20:42.642Z,39.50
2023-02-07T01:20:52.711Z,38.00
2023-02-07T01:21:02.829Z,37.20
2023-02-07T01:21:12.903Z,38.20
2023-02-07T01:21:23.010Z,38.60
2023-02-07T01:21:33.106Z,39.50
2023-02-07T01:21:43.101Z,39.10
2023-02-07T01:21:53.181Z,39.00
2023-02-07T01:22:03.289Z,41.60
2023-02-07T01:22:13.307Z,42.50
2023-02-07T01:22:24.350Z,41.00
2023-02-07T01:22:34.429Z,45.00
2023-02-07T01:22:44.502Z,44.00
2023-02-07T01:22:54.488Z,46.50
2023-02-07T01:23:04.562Z,44.00
2023-02-07T01:23:14.701Z,44.10
2023-02-07T01:23:24.796Z,43.90
2023-02-07T01:23:34.850Z,40.40
2023-02-07T01:23:44.939Z,39.60
2023-02-07T01:23:55.048Z,38.80
2023-02-07T01:24:05.127Z,40.90
2023-02-07T01:24:15.191Z,42.70
2023-02-07T01:24:25.281Z,41.20
2023-02-07T01:24:35.392Z,42.00
2023-02-07T01:24:45.508Z,39.80
2023-02-07T01:24:55.590Z,40.70
2023-02-07T01:25:05.581Z,38.70
2023-02-07T01:25:15.700Z,38.40
2023-02-07T01:25:25.835Z,39.30
2023-02-07T01:25:36.294Z,37.00
2023-02-07T01:25:45.998Z,35.90
2023-02-07T01:25:56.133Z,36.00
2023-02-07T01:26:06.191Z,37.30
2023-02-07T01:26:16.293Z,39.00
2023-02-07T01:26:26.266Z,40.30
2023-02-07T01:26:36.405Z,43.50
2023-02-07T01:26:46.479Z,42.70
2023-02-07T01:26:56.597Z,39.00
2023-02-07T01:27:06.687Z,36.60
2023-02-07T01:27:16.789Z,38.80
2023-02-07T01:27:26.868Z,40.50
2023-02-07T01:27:36.958Z,38.80
2023-02-07T01:27:47.082Z,39.20
2023-02-07T01:27:57.151Z,40.00
2023-02-07T01:28:07.278Z,40.60
2023-02-07T01:28:17.358Z,38.70
2023-02-07T01:28:27.341Z,38.20
2023-02-07T01:28:37.461Z,39.20
2023-02-07T01:28:47.571Z,38.70
2023-02-07T01:28:57.704Z,39.00
2023-02-07T01:29:07.798Z,38.10
2023-02-07T01:29:17.908Z,37.30
2023-02-07T01:29:28.011Z,36.40
2023-02-07T01:29:38.100Z,37.70
2023-02-07T01:29:48.130Z,39.40
2023-02-07T01:29:58.302Z,37.30
2023-02-07T01:30:08.365Z,37.10
2023-02-07T01:30:18.479Z,37.30
2023-02-07T01:30:28.563Z,37.70
2023-02-07T01:30:38.711Z,37.70
2023-02-07T01:30:48.813Z,36.10
2023-02-07T01:30:58.858Z,38.30
2023-02-07T01:31:09.052Z,39.90
2023-02-07T01:31:19.042Z,41.90
2023-02-07T01:31:29.178Z,40.30
2023-02-07T01:31:39.291Z,37.50
2023-02-07T01:31:49.305Z,35.90
2023-02-07T01:31:59.413Z,34.90
2023-02-07T01:32:09.502Z,35.90
2023-02-07T01:32:19.596Z,35.10
2023-02-07T01:32:29.669Z,35.80
2023-02-07T01:32:39.766Z,35.10
2023-02-07T01:32:49.839Z,37.80
2023-02-07T01:32:59.940Z,38.50
2023-02-07T01:33:10.048Z,39.40
2023-02-07T01:33:20.110Z,39.00
2023-02-07T01:33:30.203Z,39.40
2023-02-07T01:33:40.288Z,39.20
2023-02-07T01:33:50.389Z,38.50
2023-02-07T01:34:00.458Z,38.40
2023-02-07T01:34:10.564Z,37.20
2023-02-07T01:34:20.632Z,37.70
2023-02-07T01:34:30.728Z,38.80
2023-02-07T01:34:40.797Z,40.30
2023-02-07T01:34:50.905Z,39.60
2023-02-07T01:35:00.990Z,38.60
2023-02-07T01:35:11.090Z,41.30
2023-02-07T01:35:21.217Z,42.40
2023-02-07T01:35:31.319Z,43.40
2023-02-07T01:35:41.404Z,40.70
2023-02-07T01:35:51.506Z,41.20
2023-02-07T01:36:01.477Z,40.70
2023-02-07T01:36:11.573Z,41.00
2023-02-07T01:36:21.656Z,38.10
2023-02-07T01:36:31.751Z,39.10
2023-02-07T01:36:41.817Z,37.60
2023-02-07T01:36:51.953Z,40.70
2023-02-07T01:37:01.990Z,37.60
2023-02-07T01:37:12.086Z,40.40
2023-02-07T01:37:22.216Z,40.70
2023-02-07T01:37:32.307Z,46.20
2023-02-07T01:37:42.384Z,43.80
2023-02-07T01:37:52.489Z,42.10
2023-02-07T01:38:02.605Z,41.40
2023-02-07T01:38:12.705Z,41.80
2023-02-07T01:38:22.785Z,43.30
2023-02-07T01:38:32.924Z,44.30
2023-02-07T01:38:43.008Z,44.40
2023-02-07T01:38:53.130Z,44.40
2023-02-07T01:39:03.231Z,41.80
2023-02-07T01:39:13.324Z,40.00
2023-02-07T01:39:23.411Z,40.40
2023-02-07T01:39:33.492Z,39.50
2023-02-07T01:39:43.605Z,40.80
2023-02-07T01:39:53.682Z,39.70
2023-02-07T01:40:03.688Z,40.20
2023-02-07T01:40:13.785Z,39.60
2023-02-07T01:40:23.875Z,41.40
2023-02-07T01:40:33.935Z,41.40
2023-02-07T01:40:43.982Z,41.50
2023-02-07T01:40:54.095Z,42.00
2023-02-07T01:41:04.183Z,43.30
2023-02-07T01:41:14.294Z,43.20
2023-02-07T01:41:24.395Z,41.20
2023-02-07T01:41:34.485Z,41.40
2023-02-07T01:41:44.608Z,42.40
2023-02-07T01:41:54.674Z,43.30
2023-02-07T01:42:04.790Z,43.10
2023-02-07T01:42:14.912Z,40.60
2023-02-07T01:42:25.025Z,40.10
2023-02-07T01:42:35.105Z,39.00
2023-02-07T01:42:45.262Z,40.70
2023-02-07T01:42:55.355Z,41.20
2023-02-07T01:43:05.473Z,40.90
2023-02-07T01:43:15.570Z,40.00
2023-02-07T01:43:25.660Z,39.10
2023-02-07T01:43:35.778Z,42.80
2023-02-07T01:43:45.873Z,41.60
2023-02-07T01:43:56.058Z,39.90
2023-02-07T01:44:06.151Z,37.50
2023-02-07T01:44:16.252Z,37.60
2023-02-07T01:44:26.331Z,37.30
2023-02-07T01:44:36.435Z,37.10
2023-02-07T01:44:46.512Z,38.10
2023-02-07T01:44:56.621Z,40.60
2023-02-07T01:45:06.728Z,39.50
2023-02-07T01:45:16.820Z,39.00
2023-02-07T01:45:26.910Z,40.50
2023-02-07T01:45:37.307Z,40.90
2023-02-07T01:45:47.090Z,41.60
2023-02-07T01:45:57.184Z,37.30
2023-02-07T01:46:07.213Z,38.30
2023-02-07T01:46:17.308Z,38.10
2023-02-07T01:46:27.471Z,39.60
2023-02-07T01:46:37.569Z,39.20
2023-02-07T01:46:47.648Z,40.60
2023-02-07T01:46:57.785Z,42.20
2023-02-07T01:47:07.856Z,40.80
2023-02-07T01:47:17.954Z,37.20
2023-02-07T01:47:28.030Z,35.90
2023-02-07T01:47:38.149Z,36.20
2023-02-07T01:47:48.132Z,37.40
2023-02-07T01:47:58.228Z,38.60
2023-02-07T01:48:08.309Z,40.60
2023-02-07T01:48:18.408Z,40.80
2023-02-07T01:48:28.481Z,39.60
2023-02-07T01:48:38.639Z,39.00
2023-02-07T01:48:48.746Z,38.70
2023-02-07T01:48:58.838Z,38.80
2023-02-07T01:49:08.942Z,39.70
2023-02-07T01:49:18.999Z,39.60
2023-02-07T01:49:29.121Z,39.40
2023-02-07T01:49:39.210Z,36.50
2023-02-07T01:49:49.308Z,38.40
2023-02-07T01:49:59.439Z,39.50
2023-02-07T01:50:09.561Z,41.80
2023-02-07T01:50:19.646Z,40.70
2023-02-07T01:50:29.655Z,40.90
2023-02-07T01:50:39.773Z,39.30
2023-02-07T01:50:49.896Z,38.40
2023-02-07T01:50:59.968Z,38.20
2023-02-07T01:51:10.066Z,39.40
2023-02-07T01:51:20.146Z,40.50
2023-02-07T01:51:30.262Z,40.90
2023-02-07T01:51:40.368Z,41.10
2023-02-07T01:51:50.477Z,41.00
2023-02-07T01:52:00.560Z,40.50
2023-02-07T01:52:10.639Z,40.60
2023-02-07T01:52:20.751Z,42.30
2023-02-07T01:52:30.827Z,41.50
2023-02-07T01:52:40.940Z,45.00
2023-02-07T01:52:51.047Z,41.50
2023-02-07T01:53:01.129Z,42.40
2023-02-07T01:53:11.110Z,39.40
2023-02-07T01:53:21.188Z,39.10
2023-02-07T01:53:31.380Z,38.00
2023-02-07T01:53:41.332Z,40.90
2023-02-07T01:53:51.461Z,41.70
2023-02-07T01:54:01.559Z,42.30
2023-02-07T01:54:11.572Z,39.70
2023-02-07T01:54:21.671Z,40.20
2023-02-07T01:54:31.748Z,40.90
2023-02-07T01:54:41.868Z,42.70
2023-02-07T01:54:51.949Z,45.30
2023-02-07T01:55:02.080Z,45.00
2023-02-07T01:55:12.144Z,44.10
2023-02-07T01:55:22.216Z,40.30
2023-02-07T01:55:32.319Z,39.70
2023-02-07T01:55:42.379Z,38.10
2023-02-07T01:55:52.504Z,39.30
2023-02-07T01:56:02.618Z,41.00
2023-02-07T01:56:22.731Z,41.40
2023-02-07T01:56:31.546Z,44.40
2023-02-07T01:56:34.636Z,43.30
2023-02-07T01:56:44.746Z,40.80
2023-02-07T01:56:54.834Z,38.20
2023-02-07T01:57:05.930Z,38.90
2023-02-07T01:57:15.036Z,39.90
2023-02-07T01:57:25.113Z,41.30
2023-02-07T01:57:35.201Z,38.60
2023-02-07T01:57:45.299Z,39.30
2023-02-07T01:57:55.380Z,38.90
2023-02-07T01:58:05.464Z,40.20
2023-02-07T01:58:15.465Z,40.50
2023-02-07T01:58:25.558Z,40.10
2023-02-07T01:58:35.650Z,41.00
2023-02-07T01:58:45.727Z,40.90
2023-02-07T01:58:55.856Z,42.40
2023-02-07T01:59:05.955Z,44.40
2023-02-07T01:59:16.064Z,43.90
2023-02-07T01:59:26.154Z,42.70
2023-02-07T01:59:36.306Z,42.00
2023-02-07T01:59:46.384Z,42.00
2023-02-07T01:59:56.486Z,41.40
2023-02-07T02:00:06.608Z,42.00
2023-02-07T02:00:16.664Z,40.90
2023-02-07T02:00:26.772Z,41.40
2023-02-07T02:00:36.841Z,38.90
2023-02-07T02:00:46.942Z,38.70
2023-02-07T02:00:57.024Z,39.50
2023-02-07T02:01:07.151Z,41.10
2023-02-07T02:01:17.237Z,42.20
2023-02-07T02:01:27.369Z,42.40
2023-02-07T02:01:37.528Z,41.40
2023-02-07T02:01:47.632Z,40.60
2023-02-07T02:01:57.699Z,42.60
2023-02-07T02:02:07.804Z,43.20
2023-02-07T02:02:17.916Z,43.10
2023-02-07T02:02:27.913Z,42.90
2023-02-07T02:02:38.096Z,42.60
2023-02-07T02:02:48.214Z,41.90
2023-02-07T02:02:58.345Z,42.00
2023-02-07T02:03:08.274Z,42.40
2023-02-07T02:03:18.351Z,43.10
2023-02-07T02:03:28.462Z,41.90
2023-02-07T02:03:38.468Z,41.50
2023-02-07T02:03:48.571Z,43.40
2023-02-07T02:03:58.561Z,41.10
2023-02-07T02:04:08.673Z,38.80
2023-02-07T02:04:56.008Z,34.70
2023-02-07T02:05:06.074Z,38.80
2023-02-07T02:05:16.143Z,40.60
2023-02-07T02:05:26.234Z,39.90
2023-02-07T02:05:36.666Z,38.30
2023-02-07T02:05:47.836Z,37.00
2023-02-07T02:05:57.877Z,44.30
2023-02-07T02:06:07.977Z,44.50
2023-02-07T02:06:18.019Z,44.20
2023-02-07T02:06:28.087Z,38.50
2023-02-07T02:06:38.149Z,38.80
2023-02-07T02:06:48.310Z,36.50
2023-02-07T02:06:58.400Z,35.40
2023-02-07T02:07:08.495Z,35.40
2023-02-07T02:07:18.574Z,37.20
2023-02-07T02:07:28.620Z,39.10
2023-02-07T02:07:38.702Z,40.00
2023-02-07T02:07:48.769Z,39.30
2023-02-07T02:07:58.846Z,39.00
2023-02-07T02:08:08.989Z,38.00
2023-02-07T02:08:19.055Z,38.00
2023-02-07T02:08:29.107Z,36.60
2023-02-07T02:08:39.189Z,38.80
2023-02-07T02:08:49.289Z,40.90
2023-02-07T02:08:59.367Z,42.40
2023-02-07T02:09:09.440Z,39.20
2023-02-07T02:09:19.506Z,38.50
2023-02-07T02:09:29.596Z,38.80
2023-02-07T02:09:39.645Z,39.60
2023-02-07T02:09:49.706Z,39.80
2023-02-07T02:09:59.767Z,38.30
2023-02-07T02:10:09.931Z,37.90
2023-02-07T02:10:20.023Z,36.00
2023-02-07T02:10:30.113Z,38.30
2023-02-07T02:10:40.165Z,37.30